Time;durP1;ratioP1;P1;durP2;ratioP2;P2;SDS_P1;SDS_P2;PMS_P1;PMS_P2;Temp;Humidity;BMP_temperature;BMP_pressure;BME280_temperature;BME280_humidity;BME280_pressure;Samples;Min_cycle;Max_cycle;Signal;HPM_P1;HPM_P2
2022/09/07 00:00:55;;;;;;;8.80;1.40;;;16.70;99.90;;;;;;4971583;28;20026;-82
2022/09/07 00:03:21;;;;;;;11.40;1.48;;;16.70;99.90;;;;;;4971757;28;20015;-82
2022/09/07 00:05:49;;;;;;;12.60;1.98;;;16.70;99.90;;;;;;4972058;28;20480;-82
2022/09/07 00:08:18;;;;;;;5.80;1.35;;;16.70;99.90;;;;;;4972738;28;20019;-82
2022/09/07 00:10:58;;;;;;;9.32;1.60;;;16.70;99.90;;;;;;4973459;28;20023;-82
2022/09/07 00:13:26;;;;;;;6.93;1.20;;;16.80;99.90;;;;;;4973633;28;20027;-82
2022/09/07 00:15:52;;;;;;;11.05;1.77;;;16.80;99.90;;;;;;4973555;28;20039;-82
2022/09/07 00:18:18;;;;;;;7.93;1.30;;;16.80;99.90;;;;;;4973995;28;20021;-83
2022/09/07 00:20:44;;;;;;;8.82;1.48;;;16.90;99.90;;;;;;4973697;28;20038;-82
2022/09/07 00:23:10;;;;;;;11.82;1.60;;;17.00;99.90;;;;;;4973576;28;20066;-82
2022/09/07 00:25:40;;;;;;;6.97;1.20;;;17.10;99.90;;;;;;4973519;28;20094;-82
2022/09/07 00:28:06;;;;;;;9.43;1.73;;;17.00;99.90;;;;;;4967435;28;20022;-82
2022/09/07 00:30:33;;;;;;;10.80;1.23;;;17.10;99.90;;;;;;4973566;28;20050;-83
2022/09/07 00:32:59;;;;;;;8.70;1.08;;;17.10;99.90;;;;;;4969617;28;20082;-83
2022/09/07 00:35:26;;;;;;;10.57;1.60;;;17.10;99.90;;;;;;4973062;28;20026;-81
2022/09/07 00:37:51;;;;;;;9.70;1.20;;;17.10;99.90;;;;;;4972083;28;20030;-81
2022/09/07 00:40:17;;;;;;;9.77;1.73;;;17.10;99.90;;;;;;4972934;28;20031;-81
2022/09/07 00:42:43;;;;;;;12.90;2.67;;;17.10;99.90;;;;;;4973607;28;20023;-82
2022/09/07 00:45:27;;;;;;;10.57;2.17;;;17.00;99.90;;;;;;4973089;28;20595;-81
2022/09/07 00:48:03;;;;;;;12.02;1.83;;;17.10;99.90;;;;;;4972690;28;20019;-81
2022/09/07 00:50:43;;;;;;;7.68;1.45;;;17.10;99.90;;;;;;4973103;28;20392;-82
2022/09/07 00:53:18;;;;;;;13.70;1.90;;;17.00;99.90;;;;;;4973098;28;20030;-82
2022/09/07 01:55:21;;;;;;;15.43;1.50;;;17.70;99.90;;;;;;5400636;23;20054;-79
2022/09/07 01:58:07;;;;;;;14.02;2.75;;;17.70;99.90;;;;;;4971536;28;20019;-79
2022/09/07 02:00:36;;;;;;;10.50;1.90;;;17.70;99.90;;;;;;4971675;28;20019;-79
2022/09/07 02:03:19;;;;;;;13.23;1.50;;;17.70;99.90;;;;;;4971668;28;20110;-80
2022/09/07 02:06:03;;;;;;;15.20;2.38;;;17.70;99.90;;;;;;4970814;28;20022;-79
2022/09/07 02:08:54;;;;;;;13.73;1.70;;;17.80;99.90;;;;;;4971418;28;20379;-80
2022/09/07 02:11:26;;;;;;;8.57;1.60;;;17.80;99.90;;;;;;4971116;28;20077;-80
2022/09/07 02:13:53;;;;;;;;;;;17.80;99.90;;;;;;4971936;28;20018;-79
2022/09/07 02:16:24;;;;;;;14.40;1.95;;;17.80;99.90;;;;;;4971434;28;19925;-79
2022/09/07 02:18:54;;;;;;;11.65;2.22;;;17.80;99.90;;;;;;4971418;28;20061;-79
2022/09/07 02:21:25;;;;;;;11.23;2.30;;;17.70;99.90;;;;;;4971439;28;20055;-79
2022/09/07 02:23:56;;;;;;;9.20;1.58;;;17.70;99.90;;;;;;4971241;28;20518;-79
2022/09/07 02:26:26;;;;;;;7.25;1.75;;;17.70;99.90;;;;;;4969785;28;20034;-80
2022/09/07 02:28:52;;;;;;;11.85;1.98;;;17.70;99.90;;;;;;4970328;28;20023;-79
2022/09/07 02:31:18;;;;;;;18.77;2.20;;;17.70;99.90;;;;;;4971473;28;20109;-79
2022/09/07 02:33:44;;;;;;;13.20;1.65;;;17.70;99.90;;;;;;4970378;28;20065;-79
2022/09/07 02:36:12;;;;;;;8.50;2.10;;;17.80;99.90;;;;;;4970885;28;20581;-79
2022/09/07 02:38:38;;;;;;;11.57;1.95;;;17.80;99.90;;;;;;4970721;28;20455;-79
2022/09/07 02:41:05;;;;;;;14.57;1.85;;;17.80;99.90;;;;;;4971080;28;20059;-79
2022/09/07 02:43:31;;;;;;;17.70;2.20;;;17.80;99.90;;;;;;4971480;28;20026;-79
2022/09/07 02:46:22;;;;;;;16.73;1.75;;;17.80;99.90;;;;;;4970952;28;20038;-79
2022/09/07 02:48:59;;;;;;;12.52;2.00;;;17.80;99.90;;;;;;4971040;28;20038;-79
2022/09/07 02:51:57;;;;;;;14.65;1.92;;;17.70;99.90;;;;;;4970550;28;20156;-80
2022/09/07 03:53:58;;;;;;;11.98;1.98;;;15.30;99.90;;;;;;6115277;23;20005;-84
2022/09/07 03:56:24;;;;;;;15.80;1.83;;;15.20;99.90;;;;;;4963640;28;20035;-81
2022/09/07 03:58:52;;;;;;;15.35;1.48;;;15.20;99.90;;;;;;4973760;28;20736;-83
2022/09/07 04:01:20;;;;;;;18.10;2.10;;;15.20;99.90;;;;;;4972386;28;20026;-82
2022/09/07 04:03:47;;;;;;;8.32;2.33;;;15.20;99.90;;;;;;4973979;28;20069;-81
2022/09/07 04:06:14;;;;;;;17.98;1.67;;;15.20;99.90;;;;;;4973490;28;20077;-82
2022/09/07 04:08:40;;;;;;;14.07;2.28;;;15.20;99.90;;;;;;4973416;28;20073;-80
2022/09/07 04:11:09;;;;;;;13.30;1.85;;;15.20;99.90;;;;;;4973811;28;20093;-81
2022/09/07 04:13:36;;;;;;;10.32;1.73;;;15.20;99.90;;;;;;4973826;28;20022;-81
2022/09/07 04:16:22;;;;;;;9.40;1.60;;;15.20;99.90;;;;;;4973626;28;20038;-82
2022/09/07 04:18:49;;;;;;;8.73;1.75;;;15.30;99.90;;;;;;4974019;28;20034;-82
2022/09/07 04:21:16;;;;;;;15.48;1.55;;;15.30;99.90;;;;;;4973261;28;20058;-81
2022/09/07 04:23:43;;;;;;;13.20;1.90;;;15.30;99.90;;;;;;4973444;28;20491;-80
2022/09/07 04:26:22;;;;;;;15.00;1.88;;;15.30;99.90;;;;;;4970251;28;20122;-81
2022/09/07 04:28:48;;;;;;;15.20;1.77;;;15.40;99.90;;;;;;4973120;28;20027;-81
2022/09/07 04:31:15;;;;;;;14.02;2.13;;;15.50;99.90;;;;;;4972151;28;20035;-80
2022/09/07 04:33:41;;;;;;;15.60;2.30;;;15.50;99.90;;;;;;4973600;28;20476;-80
2022/09/07 04:36:07;;;;;;;17.02;2.15;;;15.50;99.90;;;;;;4973070;28;20082;-81
2022/09/07 04:38:34;;;;;;;16.52;3.08;;;15.50;99.90;;;;;;4973234;28;20011;-81
2022/09/07 04:41:02;;;;;;;18.90;2.00;;;15.50;99.90;;;;;;4973371;28;20073;-80
2022/09/07 04:43:28;;;;;;;15.00;1.85;;;15.50;99.90;;;;;;4972967;28;20527;-81
2022/09/07 04:45:54;;;;;;;12.65;1.73;;;15.50;99.90;;;;;;4973193;28;20034;-80
2022/09/07 04:48:20;;;;;;;11.70;1.67;;;15.50;99.90;;;;;;4973544;28;20081;-81
2022/09/07 04:50:46;;;;;;;14.82;1.48;;;15.40;99.90;;;;;;4973126;28;20092;-81
2022/09/07 04:53:12;;;;;;;14.48;1.95;;;15.30;99.90;;;;;;4973021;28;20030;-81
2022/09/07 05:55:11;;;;;;;13.70;1.85;;;15.20;99.90;;;;;;5571963;23;20109;-80
2022/09/07 05:57:37;;;;;;;19.58;2.75;;;15.30;99.90;;;;;;4970363;28;20023;-80
2022/09/07 06:00:03;;;;;;;16.80;2.67;;;15.30;99.90;;;;;;4972178;28;20031;-80
2022/09/07 06:02:29;;;;;;;9.73;1.90;;;15.30;99.90;;;;;;4971904;28;20023;-80
2022/09/07 06:04:55;;;;;;;15.57;2.67;;;15.30;99.90;;;;;;4971724;28;20034;-80
2022/09/07 06:07:20;;;;;;;18.52;2.25;;;15.40;99.90;;;;;;4971617;28;20110;-81
2022/09/07 06:09:46;;;;;;;19.15;2.75;;;15.40;99.90;;;;;;4971194;28;20395;-80
2022/09/07 06:12:12;;;;;;;11.50;2.88;;;15.40;99.90;;;;;;4971259;28;20046;-80
2022/09/07 06:14:37;;;;;;;15.35;2.95;;;15.40;99.90;;;;;;4971464;28;20027;-80
2022/09/07 06:17:03;;;;;;;11.98;1.83;;;15.50;99.90;;;;;;4971301;28;20436;-80
2022/09/07 06:19:29;;;;;;;15.68;2.05;;;15.40;99.90;;;;;;4971301;28;20018;-80
2022/09/07 06:21:54;;;;;;;14.13;2.40;;;15.40;99.90;;;;;;4971411;28;20495;-80
2022/09/07 06:24:20;;;;;;;18.45;3.28;;;15.50;99.90;;;;;;4970008;28;20029;-81
2022/09/07 06:26:46;;;;;;;15.00;2.28;;;15.60;99.90;;;;;;4967874;28;20471;-80
2022/09/07 06:29:12;;;;;;;13.32;2.67;;;15.80;99.90;;;;;;4971355;28;20026;-80
2022/09/07 06:31:37;;;;;;;15.45;2.65;;;16.00;99.90;;;;;;4971129;28;20019;-80
2022/09/07 06:34:03;;;;;;;16.63;2.67;;;16.10;99.90;;;;;;4970304;28;20086;-79
2022/09/07 06:36:30;;;;;;;18.90;2.95;;;16.20;99.90;;;;;;4970186;28;20023;-79
2022/09/07 06:38:58;;;;;;;15.90;2.15;;;16.40;99.90;;;;;;4971334;28;20029;-80
2022/09/07 06:41:27;;;;;;;20.60;2.60;;;16.50;99.90;;;;;;4971119;28;20500;-79
2022/09/07 06:43:54;;;;;;;16.27;2.22;;;16.60;99.90;;;;;;4971460;28;20023;-79
2022/09/07 06:46:21;;;;;;;21.58;2.95;;;16.70;99.90;;;;;;4971358;28;20118;-79
2022/09/07 06:48:46;;;;;;;17.58;2.80;;;16.80;99.90;;;;;;4971235;28;20054;-79
2022/09/07 06:51:14;;;;;;;10.95;1.95;;;16.90;99.90;;;;;;4971156;28;20081;-80
2022/09/07 06:53:39;;;;;;;18.42;2.17;;;17.00;99.90;;;;;;4971675;28;20042;-80
2022/09/07 13:57:01;;;;;;;6.15;0.85;;;25.20;59.10;;;;;;4946981;28;20084;-76
2022/09/07 13:59:30;;;;;;;8.25;1.00;;;24.80;61.10;;;;;;4953937;28;20046;-77
2022/09/07 14:01:57;;;;;;;10.73;1.88;;;24.80;63.40;;;;;;4954040;28;20026;-76
2022/09/07 14:04:25;;;;;;;7.93;1.13;;;25.40;62.30;;;;;;4954158;28;20053;-77
2022/09/07 14:07:02;;;;;;;10.95;1.35;;;26.50;56.90;;;;;;4953934;28;20023;-76
2022/09/07 14:09:28;;;;;;;3.13;0.80;;;26.80;56.80;;;;;;4954038;28;20057;-77
2022/09/07 14:11:54;;;;;;;5.68;1.15;;;26.70;55.00;;;;;;4953781;28;20654;-76
2022/09/07 14:14:21;;;;;;;6.95;1.67;;;26.60;56.60;;;;;;4953510;28;20392;-77
2022/09/07 14:16:58;;;;;;;7.13;1.02;;;26.30;56.00;;;;;;4953720;28;20535;-77
2022/09/07 14:19:38;;;;;;;12.30;1.40;;;25.60;58.90;;;;;;4954065;28;20039;-76
2022/09/07 14:22:13;;;;;;;14.25;2.00;;;25.30;62.10;;;;;;4953889;28;20031;-76
2022/09/07 14:24:51;;;;;;;16.77;1.42;;;24.90;63.90;;;;;;4953799;28;20486;-77
2022/09/07 14:27:34;;;;;;;11.80;1.17;;;24.50;65.40;;;;;;4953238;28;20023;-77
2022/09/07 14:30:19;;;;;;;9.90;1.05;;;24.30;68.30;;;;;;4953784;28;20023;-76
2022/09/07 14:32:46;;;;;;;9.48;1.65;;;25.20;63.40;;;;;;4953712;28;20016;-76
2022/09/07 14:35:14;;;;;;;4.80;0.80;;;26.10;58.80;;;;;;4953152;28;20035;-76
2022/09/07 14:37:41;;;;;;;9.18;1.73;;;25.90;59.30;;;;;;4953548;28;20027;-76
2022/09/07 14:40:13;;;;;;;8.80;1.20;;;25.30;60.90;;;;;;4953442;28;20094;-76
2022/09/07 14:42:41;;;;;;;9.88;1.25;;;25.50;61.20;;;;;;4953375;28;20472;-76
2022/09/07 14:45:22;;;;;;;8.45;1.10;;;26.60;56.20;;;;;;4953375;28;20058;-76
2022/09/07 14:47:51;;;;;;;9.20;1.83;;;28.30;52.60;;;;;;4953173;28;20032;-76
2022/09/07 14:50:32;;;;;;;7.65;0.85;;;28.80;50.90;;;;;;4953160;28;20032;-77
2022/09/07 14:53:03;;;;;;;7.65;1.88;;;29.60;48.50;;;;;;4953275;28;20070;-77
2022/09/07 17:56:45;;;;;;;8.93;0.88;;;20.00;99.90;;;;;;5148776;23;20067;-78
2022/09/07 17:59:11;;;;;;;2.90;0.95;;;19.90;99.90;;;;;;4971311;28;20027;-78
2022/09/07 18:01:38;;;;;;;8.65;1.10;;;19.80;99.90;;;;;;4973064;28;20077;-78
2022/09/07 18:04:04;;;;;;;10.25;1.50;;;19.70;99.90;;;;;;4973216;28;20026;-78
2022/09/07 18:06:31;;;;;;;9.43;1.10;;;19.50;99.90;;;;;;4972914;28;20488;-79
2022/09/07 18:08:57;;;;;;;6.47;1.02;;;19.40;99.90;;;;;;4972794;28;20105;-79
2022/09/07 18:11:22;;;;;;;6.43;1.30;;;19.30;99.90;;;;;;4972396;28;20071;-78
2022/09/07 18:13:53;;;;;;;9.90;1.20;;;19.20;99.90;;;;;;4972381;28;20039;-77
2022/09/07 18:16:30;;;;;;;7.68;1.08;;;19.10;99.90;;;;;;4972322;28;20031;-79
2022/09/07 18:18:57;;;;;;;5.68;1.13;;;19.00;99.90;;;;;;4972634;28;20107;-79
2022/09/07 18:21:29;;;;;;;7.22;1.23;;;18.90;99.90;;;;;;4971275;28;20027;-79
2022/09/07 18:23:57;;;;;;;8.68;1.17;;;18.80;99.90;;;;;;4972976;28;20154;-79
2022/09/07 18:26:23;;;;;;;8.18;1.00;;;18.70;99.90;;;;;;4972504;28;20030;-79
2022/09/07 18:28:54;;;;;;;7.47;1.83;;;18.70;99.90;;;;;;4972923;28;20045;-79
2022/09/07 18:31:21;;;;;;;8.35;0.98;;;18.60;99.90;;;;;;4972438;28;20494;-79
2022/09/07 18:33:47;;;;;;;12.18;1.42;;;18.50;99.90;;;;;;4963016;28;20110;-78
2022/09/07 18:36:14;;;;;;;7.22;1.27;;;18.40;99.90;;;;;;4972625;28;20035;-79
2022/09/07 18:38:40;;;;;;;8.13;1.10;;;18.30;99.90;;;;;;4972801;28;20022;-79
2022/09/07 18:41:09;;;;;;;9.27;1.48;;;18.30;99.90;;;;;;4972886;28;20053;-79
2022/09/07 18:43:36;;;;;;;7.18;1.48;;;18.20;99.90;;;;;;4971876;28;20065;-79
2022/09/07 18:46:05;;;;;;;10.65;1.35;;;18.10;99.90;;;;;;4971917;28;20015;-80
2022/09/07 18:48:31;;;;;;;9.82;1.45;;;18.00;99.90;;;;;;4972346;28;20053;-80
2022/09/07 18:50:57;;;;;;;12.30;1.60;;;18.00;99.90;;;;;;4971904;28;20101;-80
2022/09/07 18:53:23;;;;;;;3.50;1.50;;;18.00;99.90;;;;;;4971929;28;20037;-80
2022/09/07 19:55:22;;;;;;;22.30;1.75;;;14.70;99.90;;;;;;5850510;23;20062;-83
2022/09/07 19:57:50;;;;;;;13.05;1.00;;;14.80;99.90;;;;;;4973698;28;20039;-82
2022/09/07 20:00:15;;;;;;;8.75;1.13;;;14.80;99.90;;;;;;4970860;28;20022;-82
2022/09/07 20:02:41;;;;;;;20.20;1.55;;;14.90;99.90;;;;;;4970183;28;20035;-83
2022/09/07 20:05:07;;;;;;;6.20;1.20;;;14.90;99.90;;;;;;4971262;28;20039;-85
2022/09/07 20:07:33;;;;;;;7.95;0.65;;;14.90;99.90;;;;;;4970276;28;20065;-86
2022/09/07 20:09:58;;;;;;;6.22;1.00;;;14.90;99.90;;;;;;4970657;28;20035;-86
2022/09/07 20:12:24;;;;;;;8.43;0.73;;;15.00;99.90;;;;;;4970245;28;20034;-82
2022/09/07 20:14:50;;;;;;;8.57;0.98;;;15.10;99.90;;;;;;4970967;28;20059;-86
2022/09/07 20:17:16;;;;;;;10.38;0.93;;;15.10;99.90;;;;;;4970543;28;20043;-87
2022/09/07 20:19:42;;;;;;;9.60;1.40;;;15.20;99.90;;;;;;4971233;28;20042;-85
2022/09/07 20:22:07;;;;;;;14.88;1.40;;;15.10;99.90;;;;;;4971312;28;20439;-85
2022/09/07 20:24:34;;;;;;;4.82;1.33;;;15.10;99.90;;;;;;4946257;28;20032;-87
2022/09/07 20:27:01;;;;;;;11.05;0.95;;;15.00;99.90;;;;;;4942852;28;20035;-84
2022/09/07 20:29:28;;;;;;;4.38;1.08;;;14.90;99.90;;;;;;4950607;28;20034;-89
2022/09/07 20:31:56;;;;;;;8.35;0.75;;;14.90;99.90;;;;;;4950130;28;20031;-83
2022/09/07 20:34:21;;;;;;;8.25;0.90;;;14.90;99.90;;;;;;4950902;28;20023;-88
2022/09/07 20:36:51;;;;;;;3.28;0.90;;;14.90;99.90;;;;;;4966461;28;20043;-87
2022/09/07 20:39:17;;;;;;;3.13;0.68;;;14.90;99.90;;;;;;4966994;28;20059;-86
2022/09/07 20:41:43;;;;;;;2.42;0.65;;;14.90;99.90;;;;;;4951778;28;20035;-84
2022/09/07 20:44:09;;;;;;;19.60;1.00;;;14.90;99.90;;;;;;4951788;28;20223;-85
2022/09/07 20:46:35;;;;;;;9.02;0.52;;;14.90;99.90;;;;;;4949860;28;20041;-86
2022/09/07 20:49:02;;;;;;;6.97;0.80;;;14.90;99.90;;;;;;4939768;29;20044;-89
2022/09/07 20:51:28;;;;;;;6.18;0.52;;;14.90;99.90;;;;;;4945155;28;20451;-88
2022/09/07 20:53:54;;;;;;;8.60;1.23;;;14.90;99.90;;;;;;4940925;28;20031;-90
2022/09/07 20:56:25;;;;;;;4.53;0.43;;;14.90;99.90;;;;;;4944562;29;20047;-90
2022/09/07 20:58:59;;;;;;;6.60;0.60;;;14.90;99.90;;;;;;4947593;28;20034;-91
2022/09/07 21:01:26;;;;;;;5.32;0.70;;;14.90;99.90;;;;;;4943802;29;20035;-91
2022/09/07 21:03:56;;;;;;;6.22;0.80;;;14.90;99.90;;;;;;4964421;28;20099;-89
2022/09/07 21:06:23;;;;;;;3.97;0.55;;;14.90;99.90;;;;;;4940368;29;20035;-88
2022/09/07 21:08:49;;;;;;;4.47;0.60;;;14.90;99.90;;;;;;4937786;28;20043;-88
2022/09/07 21:11:20;;;;;;;6.95;0.65;;;14.90;99.90;;;;;;4938276;28;20031;-88
2022/09/07 21:13:46;;;;;;;3.50;0.60;;;14.90;99.90;;;;;;4938287;28;20055;-87
2022/09/07 21:16:15;;;;;;;6.55;1.10;;;14.90;99.90;;;;;;4941595;29;20535;-89
2022/09/07 21:18:42;;;;;;;5.82;0.80;;;14.90;99.90;;;;;;4938483;28;20050;-86
2022/09/07 21:21:08;;;;;;;3.80;0.50;;;14.80;99.90;;;;;;4951530;28;20512;-89
2022/09/07 21:23:35;;;;;;;4.80;1.08;;;14.90;99.90;;;;;;4939155;28;20022;-87
2022/09/07 21:26:02;;;;;;;1.65;0.40;;;14.90;99.90;;;;;;4940851;29;20024;-86
2022/09/07 21:28:28;;;;;;;5.03;0.60;;;14.80;99.90;;;;;;4939021;29;20040;-88
2022/09/07 21:31:03;;;;;;;5.15;0.40;;;14.80;99.90;;;;;;4938638;28;20611;-83
2022/09/07 21:33:30;;;;;;;2.63;0.30;;;14.80;99.90;;;;;;4931166;29;20027;-88
2022/09/07 21:36:06;;;;;;;4.85;0.40;;;14.70;99.90;;;;;;4950716;28;20035;-87
2022/09/07 21:38:33;;;;;;;3.10;0.32;;;14.70;99.90;;;;;;4951391;28;20027;-89
2022/09/07 21:41:04;;;;;;;1.23;0.28;;;14.70;99.90;;;;;;4946414;29;20028;-86
2022/09/07 21:43:29;;;;;;;2.88;0.40;;;14.70;99.90;;;;;;4937755;29;20035;-86
2022/09/07 21:45:55;;;;;;;2.25;0.38;;;14.70;99.90;;;;;;4939149;29;20023;-88
2022/09/07 21:48:21;;;;;;;0.57;0.35;;;14.70;99.90;;;;;;4941985;28;20047;-86
2022/09/07 21:50:46;;;;;;;5.18;0.60;;;14.70;99.90;;;;;;4939071;28;20366;-85
2022/09/07 21:53:12;;;;;;;3.05;0.40;;;14.70;99.90;;;;;;4942158;28;20090;-88
2022/09/07 21:55:38;;;;;;;4.22;0.40;;;14.70;99.90;;;;;;4941517;29;20090;-89
2022/09/07 21:58:04;;;;;;;4.97;0.50;;;14.70;99.90;;;;;;4937349;28;20023;-91
2022/09/07 22:00:30;;;;;;;3.83;0.50;;;14.70;99.90;;;;;;4942587;29;20431;-93
2022/09/07 22:02:56;;;;;;;2.13;0.30;;;14.80;99.90;;;;;;4945903;29;20032;-92
2022/09/07 22:05:21;;;;;;;5.15;0.40;;;14.80;99.90;;;;;;4936606;28;20028;-84
2022/09/07 22:07:47;;;;;;;3.67;0.60;;;14.90;99.90;;;;;;4953366;28;20036;-84
2022/09/07 22:10:13;;;;;;;7.03;0.60;;;14.80;99.90;;;;;;4952017;28;20058;-83
2022/09/07 22:12:38;;;;;;;3.53;0.32;;;14.90;99.90;;;;;;4952425;28;20050;-83
2022/09/07 22:15:05;;;;;;;2.67;0.60;;;14.90;99.90;;;;;;4953369;28;20038;-83
2022/09/07 22:17:31;;;;;;;10.23;0.70;;;15.00;99.90;;;;;;4953673;28;20384;-83
2022/09/07 22:19:57;;;;;;;2.72;0.50;;;15.00;99.90;;;;;;4953374;28;20023;-83
2022/09/07 22:22:22;;;;;;;1.85;0.30;;;15.10;99.90;;;;;;4953169;28;20484;-83
2022/09/07 22:24:48;;;;;;;2.33;0.60;;;15.10;99.90;;;;;;4952280;29;20024;-83
2022/09/07 22:27:14;;;;;;;10.13;1.65;;;15.10;99.90;;;;;;4953480;28;20488;-82
2022/09/07 22:29:40;;;;;;;14.18;1.50;;;15.10;99.90;;;;;;4953609;28;20078;-85
2022/09/07 22:32:05;;;;;;;14.35;2.03;;;15.30;99.90;;;;;;4953497;28;20027;-82
2022/09/07 22:34:31;;;;;;;15.32;2.03;;;15.50;99.90;;;;;;4952147;28;20384;-82
2022/09/07 22:36:56;;;;;;;9.98;1.27;;;15.50;99.90;;;;;;4953214;28;20027;-82
2022/09/07 22:39:22;;;;;;;13.77;1.33;;;15.60;99.90;;;;;;4952184;28;20048;-84
2022/09/07 22:41:48;;;;;;;18.50;1.52;;;15.50;99.90;;;;;;4953298;28;20480;-83
2022/09/07 22:44:17;;;;;;;10.45;1.17;;;15.50;99.90;;;;;;4953499;28;20034;-83
2022/09/07 22:46:45;;;;;;;6.28;1.17;;;15.50;99.90;;;;;;4953339;28;20031;-84
2022/09/07 22:49:13;;;;;;;8.05;0.93;;;15.50;99.90;;;;;;4952963;28;20030;-83
2022/09/07 22:51:39;;;;;;;5.22;0.75;;;15.40;99.90;;;;;;4953345;28;20046;-83
2022/09/07 22:54:05;;;;;;;6.68;1.00;;;15.40;99.90;;;;;;4952851;28;20465;-83
2022/09/07 22:56:32;;;;;;;6.70;0.70;;;15.30;99.90;;;;;;4953432;28;20118;-83
2022/09/07 22:59:02;;;;;;;10.43;0.55;;;15.30;99.90;;;;;;4953082;28;20024;-82
2022/09/07 23:01:29;;;;;;;5.80;0.75;;;15.30;99.90;;;;;;4951596;28;20023;-82
2022/09/07 23:03:55;;;;;;;5.68;1.15;;;15.20;99.90;;;;;;4952469;29;20416;-84
2022/09/07 23:06:22;;;;;;;1.85;0.40;;;15.20;99.90;;;;;;4952107;28;20019;-82
2022/09/07 23:08:50;;;;;;;3.75;0.70;;;15.10;99.90;;;;;;4952591;29;20068;-83
2022/09/07 23:11:16;;;;;;;5.30;0.40;;;15.10;99.90;;;;;;4951330;28;20031;-83
2022/09/07 23:13:42;;;;;;;3.30;0.40;;;15.10;99.90;;;;;;4952348;29;20027;-83
2022/09/07 23:16:09;;;;;;;2.05;0.40;;;15.20;99.90;;;;;;4952216;28;20035;-83
2022/09/07 23:18:36;;;;;;;3.78;0.45;;;15.10;99.90;;;;;;4956272;28;20417;-83
2022/09/07 23:21:02;;;;;;;3.42;0.50;;;15.10;99.90;;;;;;4956510;28;20034;-83
2022/09/07 23:23:28;;;;;;;5.40;0.50;;;15.10;99.90;;;;;;4956809;28;20384;-83
2022/09/07 23:25:54;;;;;;;4.40;0.50;;;15.10;99.90;;;;;;4956714;28;20036;-83
2022/09/07 23:28:20;;;;;;;4.80;0.70;;;15.10;99.90;;;;;;4955274;28;20082;-83
2022/09/07 23:30:49;;;;;;;3.03;0.50;;;15.10;99.90;;;;;;4956754;28;20110;-83
2022/09/07 23:33:15;;;;;;;5.95;0.85;;;15.10;99.90;;;;;;4956552;28;20132;-82
2022/09/07 23:35:41;;;;;;;3.42;0.47;;;15.10;99.90;;;;;;4955604;28;20530;-82
2022/09/07 23:38:08;;;;;;;5.22;1.30;;;15.10;99.90;;;;;;4956467;28;20027;-82
2022/09/07 23:40:34;;;;;;;5.55;0.68;;;15.10;99.90;;;;;;4956318;28;20388;-83
2022/09/07 23:43:01;;;;;;;0.90;0.40;;;15.20;99.90;;;;;;4956484;28;20030;-83
2022/09/07 23:45:27;;;;;;;4.95;1.08;;;15.20;99.90;;;;;;4956287;28;20043;-82
2022/09/07 23:47:52;;;;;;;7.10;0.70;;;15.30;99.90;;;;;;4956495;28;20039;-82
2022/09/07 23:50:18;;;;;;;8.38;1.17;;;15.40;99.90;;;;;;4956164;28;20026;-83
2022/09/07 23:52:44;;;;;;;7.75;1.05;;;15.40;99.90;;;;;;4956340;28;20034;-82
2022/09/07 23:55:10;;;;;;;10.73;0.90;;;15.50;99.90;;;;;;4956049;28;20078;-82
2022/09/07 23:57:37;;;;;;;10.30;1.02;;;15.60;99.90;;;;;;4955862;28;20058;-82
